Roseburg, OR

11:43 AM PDT on September 01, 2014 (GMT -0700)
Hucrest | Change Station
CLOSE
Current Station
Personal Weather Station
Location: Roseburg, OR
Elevation: 425 ft
Nearby Weather Stations

Elev 425 ft 43.22 °N, 123.38 °W | Updated 3 minutes ago

Clear
Clear
73.7 °F
Feels Like 77 °F
N
0.0
Wind Variable Wind from SW
Gusts 0.0 mph

Today
High -- | Low -- °F
--% Chance of Precip.
Yesterday
High -- | Low -- °F
Precip. -- in
6:37 AM 7:48 PM
Waxing Crescent, 43% visible
Pressure 30.05 in
Visibility 10.0 miles
Clouds Clear
Heat Index 77 °F
Dew Point 51 °F
Humidity 45%
Rainfall 0.00 in
Snow Depth Not available.
UV 6 out of 12
Pollen 2.90 out of 12
Air Quality Not available.
Flu Activity Not available.
METAR KRBG 011753Z AUTO VRB03KT 10SM CLR 21/10 A3006 RMK AO2 SLP176 T02060100 10206 20117 58008

More Conditions Fewer Conditions

Pressure 30.05 in
Visibility 10.0 miles
Clouds Clear
Heat Index 77 °F
Dew Point 51 °F
Humidity 45%
Rainfall 0.00 in
Snow Depth Not available.
UV 6 out of 12
Pollen 2.90 out of 12
Air Quality Not available.
Flu Activity Not available.
METAR KRBG 011753Z AUTO VRB03KT 10SM CLR 21/10 A3006 RMK AO2 SLP176 T02060100 10206 20117 58008

More Conditions Fewer Conditions

10-Day Weather Forecast

Almanac

Astronomy

Sep. 01, 2014 Rise Set
Actual Time 6:37 AM PDT 7:48 PM PDT
Civil Twilight 6:08 AM PDT 8:17 PM PDT
Nautical Twilight 5:33 AM PDT 8:52 PM PDT
Astronomical Twilight 4:56 AM PDT 9:29 PM PDT
Moon 1:40 PM PDT 11:42 PM PDT
Length of Visible Light 14h 09m
Length of Day
13h 10m
Tomorrow will be 2m 50s shorter.
Waxing Crescent, 43% of the Moon is Illuminated
Today
Waxing Crescent
Sep 2
First Quarter
Sep 8
Full
Sep 15
Last Quarter
Sep 24
New

Today's Extremes

State Highs State Lows

Community

WunderPhotos

Upload Photos

1,749,359 photos uploaded!

Nearby

Snow Depth

Station Depth Elevation
Diamond Lake 0 in 5315 ft
Annie Springs 0 in 6020 ft
Sevenmile Marsh 0 in 6200 ft
Fish Lake 0 in 4665 ft
Bigelow Camp 0 in 5120 ft

Earthquake Activity

City Distance Mag. Time & Date
No recent earthquake activity has been reported nearby.
Minimum magnitude displayed is 2.5.

Coastal Water Temperatures

Place Temperature
No Stations Reporting

Nearby Weather Stations